Flight Track Log - Related Links

Times and Time Zones

All times are in EST time to prevent confusion due to time zone crossing. See the CSN3614 flight status page for this flight to view local times or setup timezone preferences in your user account.

Time Position Orientation Groundspeed Altitude Reporting Facility
EST Latitude Longitude Course Direction KTS MPH feet Rate Location/Type
Thu 03:33:00 AM 44.1223 129.2823 207° Southwest  Level Estimated
Thu 03:34:00 AM 44.0419 129.2255 207° Southwest  Level Estimated
Thu 03:35:00 AM 43.9615 129.1688 207° Southwest  Level Estimated
Thu 03:36:00 AM 43.8810 129.1122 207° Southwest  Level Estimated
Thu 03:37:00 AM 43.8005 129.0558 207° Southwest  Level Estimated
Thu 03:38:00 AM 43.7199 128.9996 207° Southwest  Level Estimated
Thu 03:39:00 AM 43.6394 128.9435 207° Southwest  Level Estimated
Thu 03:40:00 AM 43.5588 128.8876 207° Southwest  Level Estimated
Thu 03:41:00 AM 43.4781 128.8318 207° Southwest  Level Estimated
Thu 03:42:00 AM 43.3975 128.7761 207° Southwest  Level Estimated
Thu 03:43:00 AM 43.3168 128.7206 207° Southwest  Level Estimated
Thu 03:44:00 AM 43.2361 128.6653 207° Southwest  Level Estimated
Thu 03:45:00 AM 43.1554 128.6101 207° Southwest  Level Estimated
Thu 03:46:00 AM 43.0746 128.5550 206° Southwest  Level Estimated
Thu 03:47:00 AM 42.9938 128.5001 206° Southwest  Level Estimated
Thu 03:48:00 AM 42.9130 128.4453 206° Southwest  Level Estimated
Thu 03:49:00 AM 42.8322 128.3907 206° Southwest  Level Estimated
Thu 03:50:00 AM 42.7513 128.3362 206° Southwest  Level Estimated
Thu 03:51:00 AM 42.6704 128.2819 206° Southwest  Level Estimated
Thu 03:52:00 AM 42.5895 128.2277 206° Southwest  Level Estimated
Thu 03:53:00 AM 42.5086 128.1736 206° Southwest  Level Estimated
Thu 03:54:00 AM 42.4276 128.1197 206° Southwest  Level Estimated
Thu 03:55:00 AM 42.3466 128.0659 206° Southwest  Level Estimated
Thu 03:56:00 AM 42.2656 128.0123 206° Southwest  Level Estimated
Thu 03:57:00 AM 42.1846 127.9588 206° Southwest  Level Estimated
Thu 03:58:00 AM 42.1035 127.9054 206° Southwest  Level Estimated
Thu 03:59:00 AM 42.0224 127.8522 206° Southwest  Level Estimated
Thu 04:00:00 AM 41.9413 127.7991 206° Southwest  Level Estimated
Thu 04:01:00 AM 41.8602 127.7462 206° Southwest  Level Estimated
Thu 04:02:00 AM 41.7790 127.6933 206° Southwest  Level Estimated
Thu 04:03:00 AM 41.6978 127.6406 206° Southwest  Level Estimated
Thu 04:04:00 AM 41.6166 127.5881 206° Southwest  Level Estimated
Thu 04:05:00 AM 41.5354 127.5357 206° Southwest  Level Estimated
Thu 04:06:00 AM 41.4541 127.4834 206° Southwest  Level Estimated
Thu 04:07:00 AM 41.3728 127.4312 206° Southwest  Level Estimated
Thu 04:08:00 AM 41.2915 127.3792 206° Southwest  Level Estimated
Thu 04:09:00 AM 41.2102 127.3273 206° Southwest  Level Estimated
Thu 04:10:00 AM 41.1289 127.2755 206° Southwest  Level Estimated
Thu 04:11:00 AM 41.0475 127.2238 206° Southwest  Level Estimated
Thu 04:12:00 AM 40.9661 127.1723 206° Southwest  Level Estimated
Thu 04:13:00 AM 40.8847 127.1209 206° Southwest  Level Estimated
Thu 04:14:00 AM 40.8032 127.0697 205° Southwest  Level Estimated
Thu 04:15:00 AM 40.7218 127.0185 205° Southwest  Level Estimated
Thu 04:16:00 AM 40.6403 126.9675 205° Southwest  Level Estimated
Thu 04:17:00 AM 40.5588 126.9166 205° Southwest  Level Estimated
Thu 04:18:00 AM 40.4772 126.8659 205° Southwest  Level Estimated
Thu 04:19:00 AM 40.3957 126.8152 205° Southwest  Level Estimated
Thu 04:20:00 AM 40.3141 126.7647 205° Southwest  Level Estimated
Thu 04:21:00 AM 40.2325 126.7143 205° Southwest  Level Estimated
Thu 04:22:00 AM 40.1509 126.6640 205° Southwest  Level Estimated
Thu 04:23:00 AM 40.0692 126.6139 205° Southwest  Level Estimated
Thu 04:24:00 AM 39.9876 126.5638 205° Southwest  Level Estimated
Thu 04:25:00 AM 39.9059 126.5139 205° Southwest  Level Estimated
Thu 04:26:00 AM 39.8242 126.4641 205° Southwest  Level Estimated
Thu 04:27:00 AM 39.7425 126.4144 205° Southwest  Level Estimated
Thu 04:28:00 AM 39.6607 126.3649 205° Southwest  Level Estimated
Thu 04:29:00 AM 39.5789 126.3154 205° Southwest  Level Estimated
Thu 04:30:00 AM 39.4972 126.2661 205° Southwest  Level Estimated
Thu 04:31:00 AM 39.4153 126.2169 205° Southwest  Level Estimated
Thu 04:32:00 AM 39.3335 126.1678 205° Southwest  Level Estimated
Thu 04:33:00 AM 39.2517 126.1188 205° Southwest  Level Estimated
Thu 04:34:00 AM 39.1698 126.0699 205° Southwest  Level Estimated
Thu 04:35:00 AM 39.0879 126.0212 205° Southwest  Level Estimated
Thu 04:36:00 AM 39.0060 125.9725 205° Southwest  Level Estimated
Thu 04:37:00 AM 38.9241 125.9240 205° Southwest  Level Estimated
Thu 04:38:00 AM 38.8421 125.8756 205° Southwest  Level Estimated
Thu 04:39:00 AM 38.7601 125.8273 205° Southwest  Level Estimated
Thu 04:40:00 AM 38.6782 125.7791 205° Southwest  Level Estimated
Thu 04:41:00 AM 38.5961 125.7310 205° Southwest  Level Estimated
Thu 04:42:00 AM 38.5141 125.6830 205° Southwest  Level Estimated
Thu 04:43:00 AM 38.4321 125.6351 205° Southwest  Level Estimated
Thu 04:44:00 AM 38.3500 125.5874 205° Southwest  Level Estimated
Thu 04:45:00 AM 38.2679 125.5397 205° Southwest  Level Estimated
Thu 04:46:00 AM 38.1858 125.4922 204° Southwest  Level Estimated
Thu 04:47:00 AM 38.1037 125.4448 204° Southwest  Level Estimated
Thu 04:48:00 AM 38.0215 125.3974 204° Southwest  Level Estimated
Thu 04:49:00 AM 37.9393 125.3502 204° Southwest  Level Estimated
Thu 04:50:00 AM 37.8572 125.3031 204° Southwest  Level Estimated
Thu 04:51:00 AM 37.7749 125.2561 204° Southwest  Level Estimated
Thu 04:52:00 AM 37.6927 125.2092 204° Southwest  Level Estimated
Thu 04:53:00 AM 37.6105 125.1624 204° Southwest  Level Estimated
Thu 04:54:00 AM 37.5282 125.1157 204° Southwest  Level Estimated
Thu 04:55:00 AM 37.4459 125.0691 204° Southwest  Level Estimated
Thu 04:56:00 AM 37.3636 125.0226 204° Southwest  Level Estimated
Thu 04:57:00 AM 37.2813 124.9762 204° Southwest  Level Estimated
Thu 04:58:00 AM 37.1990 124.9299 204° Southwest  Level Estimated
Thu 04:59:00 AM 37.1166 124.8837 204° Southwest  Level Estimated
Thu 05:00:00 AM 37.0343 124.8376 204° Southwest  Level Estimated
Thu 05:01:00 AM 36.9519 124.7916 204° Southwest  Level Estimated
Thu 05:02:00 AM 36.8695 124.7458 204° Southwest  Level Estimated
Thu 05:03:00 AM 36.7870 124.7000 204° Southwest  Level Estimated
Thu 05:04:00 AM 36.7046 124.6543 204° Southwest  Level Estimated
Thu 05:05:00 AM 36.6222 124.6087 204° Southwest  Level Estimated
Thu 05:06:00 AM 36.5397 124.5632 204° Southwest  Level Estimated
Thu 05:07:00 AM 36.4572 124.5178 204° Southwest  Level Estimated
Thu 05:08:00 AM 36.3747 124.4725 204° Southwest  Level Estimated
Thu 05:09:00 AM 36.2921 124.4273 204° Southwest  Level Estimated
Thu 05:10:00 AM 36.2096 124.3822 204° Southwest  Level Estimated
Thu 05:11:00 AM 36.1270 124.3371 204° Southwest  Level Estimated
Thu 05:12:00 AM 36.0445 124.2922 204° Southwest  Level Estimated
Thu 05:13:00 AM 35.9619 124.2474 204° Southwest  Level Estimated
Thu 05:14:00 AM 35.8793 124.2027 204° Southwest  Level Estimated
Thu 05:15:00 AM 35.7966 124.1580 204° Southwest  Level Estimated
Thu 05:16:00 AM 35.7140 124.1135 204° Southwest  Level Estimated
Thu 05:17:00 AM 35.6313 124.0690 204° Southwest  Level Estimated
Thu 05:18:00 AM 35.5486 124.0246 204° Southwest  Level Estimated
Thu 05:19:00 AM 35.4660 123.9804 204° Southwest  Level Estimated
Thu 05:20:00 AM 35.3833 123.9362 204° Southwest  Level Estimated
Thu 05:21:00 AM 35.3005 123.8921 204° Southwest  Level Estimated
Thu 05:22:00 AM 35.2178 123.8481 203° Southwest  Level Estimated
Thu 05:23:00 AM 35.1350 123.8042 203° Southwest  Level Estimated
Thu 05:24:00 AM 35.0523 123.7604 203° Southwest  Level Estimated
Thu 05:25:00 AM 34.9695 123.7166 203° Southwest  Level Estimated
Thu 05:26:00 AM 34.8867 123.6730 203° Southwest  Level Estimated
Thu 05:27:00 AM 34.8038 123.6294 203° Southwest  Level Estimated
Thu 05:28:00 AM 34.7210 123.5860 203° Southwest  Level Estimated
Thu 05:29:00 AM 34.6382 123.5426 203° Southwest  Level Estimated
Thu 05:30:00 AM 34.5553 123.4993 203° Southwest  Level Estimated
Thu 05:31:00 AM 34.4724 123.4561 203° Southwest  Level Estimated
Thu 05:32:00 AM 34.3895 123.4129 203° Southwest  Level Estimated
Thu 05:33:00 AM 34.3066 123.3699 203° Southwest  Level Estimated
Thu 05:34:00 AM 34.2237 123.3269 203° Southwest  Level Estimated
Thu 05:35:00 AM 34.1407 123.2841 203° Southwest  Level Estimated
Thu 05:36:00 AM 34.0578 123.2413 203° Southwest  Level Estimated
Thu 05:37:00 AM 33.9748 123.1986 203° Southwest  Level Estimated
Thu 05:38:00 AM 33.8918 123.1560 203° Southwest  Level Estimated
Thu 05:39:00 AM 33.8088 123.1134 203° Southwest  Level Estimated
Thu 05:40:00 AM 33.7258 123.0710 203° Southwest  Level Estimated
Thu 05:41:00 AM 33.6428 123.0286 203° Southwest  Level Estimated
Thu 05:42:00 AM 33.5597 122.9863 203° Southwest  Level Estimated
Thu 05:43:00 AM 33.4767 122.9441 203° Southwest  Level Estimated
Thu 05:44:00 AM 33.3936 122.9020 203° Southwest  Level Estimated
Thu 05:45:00 AM 33.3105 122.8599 203° Southwest  Level Estimated
Thu 05:46:00 AM 33.2274 122.8179 203° Southwest  Level Estimated
Thu 05:47:00 AM 33.1443 122.7761 203° Southwest  Level Estimated
Thu 05:48:00 AM 33.0612 122.7343 203° Southwest  Level Estimated
Thu 05:49:00 AM 32.9780 122.6925 203° Southwest  Level Estimated
Thu 05:50:00 AM 32.8949 122.6509 203° Southwest  Level Estimated
Thu 05:51:00 AM 32.8117 122.6093 203° Southwest  Level Estimated
Thu 05:52:00 AM 32.7285 122.5678 203° Southwest  Level Estimated
Thu 05:53:00 AM 32.6453 122.5264 203° Southwest  Level Estimated
Thu 05:54:00 AM 32.5621 122.4850 203° Southwest  Level Estimated
Thu 05:55:00 AM 32.4789 122.4438 203° Southwest  Level Estimated
Thu 05:56:00 AM 32.3957 122.4026 203° Southwest  Level Estimated
Thu 05:57:00 AM 32.3124 122.3615 203° Southwest  Level Estimated
Thu 05:58:00 AM 32.2291 122.3204 203° Southwest  Level Estimated
Thu 05:59:00 AM 32.1459 122.2795 203° Southwest  Level Estimated
Thu 06:00:00 AM 32.0626 122.2386 203° Southwest  Level Estimated
Thu 06:01:00 AM 31.9793 122.1978 203° Southwest  Level Estimated
Thu 06:02:00 AM 31.8960 122.1570 203° Southwest  Level Estimated
Thu 06:03:00 AM 31.8126 122.1164 203° Southwest  Level Estimated
Thu 06:04:00 AM 31.7293 122.0758 203° Southwest  Level Estimated
Thu 06:05:00 AM 31.6459 122.0353 202° Southwest  Level Estimated
Thu 06:06:00 AM 31.5626 121.9948 202° Southwest  Level Estimated
Thu 06:07:00 AM 31.4792 121.9545 202° Southwest  Level Estimated
Thu 06:08:00 AM 31.3958 121.9141 202° Southwest  Level Estimated
Thu 06:09:00 AM 31.3124 121.8739 202° Southwest  Level Estimated
Thu 06:10:00 AM 31.2290 121.8338 202° Southwest  Level Estimated
Thu 06:11:00 AM 31.1455 121.7937 202° Southwest  Level Estimated
Thu 06:12:00 AM 31.1428 121.7924 202° Southwest  Level Estimated
Thu 06:13:00 AM 31.1428 121.7924 221° Southwest  Level Estimated
Thu 06:14:00 AM 31.1428 121.7924 221° Southwest  Level Estimated
Thu 06:15:00 AM 31.1428 121.7924 221° Southwest  Level Estimated
Thu 06:16:00 AM 31.1428 121.7924 221° Southwest  Level Estimated
Thu 06:17:00 AM 31.1428 121.7924 221° Southwest  Level Estimated
Thu 06:18:00 AM 31.1428 121.7924 221° Southwest  Level Estimated
Thu 06:19:00 AM 31.1428 121.7924 221° Southwest  Level Estimated
Thu 06:20:00 AM 31.1428 121.7924 221° Southwest  Level Estimated
Thu 06:21:00 AM 31.1428 121.7924 221° Southwest  Level Estimated
Thu 06:22:00 AM 31.1428 121.7924 221° Southwest  Level Estimated
Thu 06:23:00 AM 31.1428 121.7924 221° Southwest  Level Estimated
Thu 06:24:00 AM 31.1428 121.7924 221° Southwest  Level Estimated

Login

Don't have an account? Register now (free) for customized features, flight alerts, and more!